createdAt,value
2022-09-03T00:00:06.036Z,15.15
2022-09-03T00:02:31.803Z,15.10
2022-09-03T00:05:01.245Z,15.23
2022-09-03T00:07:15.905Z,15.09
2022-09-03T00:09:28.560Z,15.09
2022-09-03T00:12:00.001Z,15.18
2022-09-03T00:14:20.219Z,15.03
2022-09-03T00:16:27.300Z,14.66
2022-09-03T00:18:33.763Z,15.10
2022-09-03T00:20:38.923Z,15.10
2022-09-03T00:22:48.852Z,15.04
2022-09-03T00:24:52.779Z,14.78
2022-09-03T00:27:01.929Z,14.80
2022-09-03T00:29:17.269Z,14.73
2022-09-03T00:31:51.808Z,14.68
2022-09-03T00:34:27.517Z,14.92
2022-09-03T00:36:44.067Z,14.90
2022-09-03T00:38:47.089Z,14.68
2022-09-03T00:41:21.527Z,14.81
2022-09-03T00:44:06.954Z,14.82
2022-09-03T00:46:27.286Z,14.63
2022-09-03T00:49:05.477Z,14.58
2022-09-03T00:51:25.605Z,14.55
2022-09-03T00:54:00.221Z,14.72
2022-09-03T00:56:44.784Z,14.65
2022-09-03T00:59:13.331Z,14.62
2022-09-03T01:01:38.903Z,14.63
2022-09-03T01:04:22.415Z,14.58
2022-09-03T01:06:59.084Z,14.57
2022-09-03T01:09:23.673Z,14.40
2022-09-03T01:12:36.178Z,14.40
2022-09-03T01:15:09.520Z,14.50
2022-09-03T01:17:34.941Z,14.43
2022-09-03T01:20:33.326Z,14.51
2022-09-03T01:23:09.374Z,14.48
2022-09-03T01:25:39.152Z,14.44
2022-09-03T01:27:58.608Z,14.42
2022-09-03T01:30:18.355Z,14.18
2022-09-03T01:32:49.161Z,14.32
2022-09-03T01:35:29.533Z,14.41
2022-09-03T01:37:52.044Z,14.43
2022-09-03T01:40:33.825Z,14.42
2022-09-03T01:43:12.290Z,14.41
2022-09-03T01:45:28.049Z,14.37
2022-09-03T01:48:19.538Z,14.36
2022-09-03T01:51:00.308Z,14.34
2022-09-03T01:53:18.675Z,14.32
2022-09-03T01:56:09.962Z,14.30
2022-09-03T01:58:28.571Z,14.20
2022-09-03T02:00:33.532Z,14.31
2022-09-03T02:02:36.493Z,14.16
2022-09-03T02:04:39.059Z,13.91
2022-09-03T02:06:41.791Z,14.11
2022-09-03T02:08:44.797Z,14.02
2022-09-03T02:10:54.432Z,14.12
2022-09-03T02:13:07.718Z,13.82
2022-09-03T02:15:16.684Z,14.02
2022-09-03T02:17:21.731Z,13.55
2022-09-03T02:19:24.635Z,13.70
2022-09-03T02:21:36.020Z,14.03
2022-09-03T02:23:41.052Z,13.88
2022-09-03T02:25:48.717Z,13.90
2022-09-03T02:27:51.590Z,14.11
2022-09-03T02:29:54.172Z,13.82
2022-09-03T02:31:58.662Z,14.04
2022-09-03T02:34:01.826Z,13.93
2022-09-03T02:36:12.514Z,13.80
2022-09-03T02:38:23.190Z,14.08
2022-09-03T02:40:26.868Z,13.50
2022-09-03T02:42:29.476Z,13.81
2022-09-03T02:44:35.612Z,13.50
2022-09-03T02:46:49.221Z,14.03
2022-09-03T02:48:51.822Z,13.79
2022-09-03T02:50:54.408Z,12.95
2022-09-03T02:52:57.116Z,13.75
2022-09-03T02:54:59.713Z,13.84
2022-09-03T02:57:03.160Z,13.92
2022-09-03T02:59:08.096Z,13.76
2022-09-03T03:01:11.842Z,13.80
2022-09-03T03:03:21.058Z,13.76
2022-09-03T03:05:36.905Z,13.90
2022-09-03T03:07:41.540Z,13.65
2022-09-03T03:09:44.186Z,13.20
2022-09-03T03:11:46.895Z,13.85
2022-09-03T03:13:49.507Z,13.52
2022-09-03T03:15:57.792Z,13.84
2022-09-03T03:18:00.381Z,13.45
2022-09-03T03:20:03.755Z,13.54
2022-09-03T03:22:06.359Z,13.31
2022-09-03T03:24:09.309Z,13.71
2022-09-03T03:26:20.685Z,13.67
2022-09-03T03:28:23.353Z,13.31
2022-09-03T03:30:26.388Z,13.76
2022-09-03T03:32:29.002Z,13.53
2022-09-03T03:34:31.582Z,13.05
2022-09-03T03:36:34.789Z,13.50
2022-09-03T03:38:38.062Z,13.58
2022-09-03T03:40:40.753Z,13.03
2022-09-03T03:42:43.665Z,12.48
2022-09-03T03:44:46.211Z,13.30
2022-09-03T03:46:48.796Z,13.52
2022-09-03T03:48:52.734Z,13.53
2022-09-03T03:50:55.265Z,13.07
2022-09-03T03:53:01.246Z,13.58
2022-09-03T03:55:05.045Z,13.32
2022-09-03T03:57:07.801Z,13.37
2022-09-03T03:59:10.493Z,13.15
2022-09-03T04:01:25.303Z,13.47
2022-09-03T04:03:29.351Z,13.33
2022-09-03T04:05:33.824Z,13.11
2022-09-03T04:07:36.497Z,13.17
2022-09-03T04:09:39.317Z,13.12
2022-09-03T04:11:41.900Z,13.26
2022-09-03T04:13:46.720Z,13.35
2022-09-03T04:15:49.328Z,12.98
2022-09-03T04:17:55.292Z,12.87
2022-09-03T04:19:57.922Z,12.93
2022-09-03T04:22:00.536Z,13.14
2022-09-03T04:24:05.681Z,13.14
2022-09-03T04:26:10.739Z,12.83
2022-09-03T04:28:14.088Z,13.12
2022-09-03T04:30:16.888Z,13.19
2022-09-03T04:32:38.062Z,13.23
2022-09-03T04:34:40.623Z,12.90
2022-09-03T04:36:43.226Z,12.64
2022-09-03T04:38:48.161Z,13.13
2022-09-03T04:40:53.585Z,13.25
2022-09-03T04:42:59.618Z,13.27
2022-09-03T04:45:02.280Z,12.93
2022-09-03T04:47:07.991Z,13.17
2022-09-03T04:49:10.756Z,12.66
2022-09-03T04:51:16.830Z,13.20
2022-09-03T04:53:19.363Z,13.15
2022-09-03T04:55:23.146Z,13.22
2022-09-03T04:57:25.806Z,12.43
2022-09-03T04:59:30.518Z,13.18
2022-09-03T05:01:35.874Z,13.34
2022-09-03T05:03:39.018Z,13.45
2022-09-03T05:05:41.561Z,13.30
2022-09-03T05:07:45.136Z,13.15
2022-09-03T05:09:47.908Z,13.59
2022-09-03T05:11:52.630Z,13.53
2022-09-03T05:13:59.314Z,13.34
2022-09-03T05:16:07.942Z,13.77
2022-09-03T05:18:10.602Z,13.45
2022-09-03T05:20:13.265Z,13.55
2022-09-03T05:22:21.303Z,13.85
2022-09-03T05:24:25.082Z,13.36
2022-09-03T05:26:34.309Z,13.84
2022-09-03T05:28:39.378Z,13.91
2022-09-03T05:30:42.353Z,14.22
2022-09-03T05:32:45.089Z,14.14
2022-09-03T05:34:47.625Z,14.20
2022-09-03T05:36:50.262Z,14.39
2022-09-03T05:38:56.400Z,14.60
2022-09-03T05:41:03.145Z,14.68
2022-09-03T05:43:08.499Z,13.89
2022-09-03T05:45:11.569Z,14.13
2022-09-03T05:47:14.117Z,14.68
2022-09-03T05:49:16.787Z,14.41
2022-09-03T05:51:19.729Z,14.76
2022-09-03T05:53:23.197Z,14.42
2022-09-03T05:55:25.774Z,14.97
2022-09-03T05:57:29.697Z,14.37
2022-09-03T05:59:32.304Z,14.71
2022-09-03T06:01:38.114Z,14.84
2022-09-03T06:03:43.072Z,15.46
2022-09-03T06:05:55.139Z,14.68
2022-09-03T06:07:57.841Z,15.33
2022-09-03T06:10:00.454Z,15.23
2022-09-03T06:12:03.980Z,15.67
2022-09-03T06:14:12.342Z,15.76
2022-09-03T06:16:15.762Z,15.74
2022-09-03T06:18:18.437Z,15.97
2022-09-03T06:20:21.018Z,15.55
2022-09-03T06:22:25.476Z,16.19
2022-09-03T06:24:29.887Z,16.05
2022-09-03T06:26:32.476Z,16.04
2022-09-03T06:28:38.063Z,16.40
2022-09-03T06:30:41.767Z,16.26
2022-09-03T06:32:47.995Z,16.33
2022-09-03T06:34:50.557Z,16.54
2022-09-03T06:36:54.651Z,16.51
2022-09-03T06:38:58.575Z,16.74
2022-09-03T06:41:04.305Z,16.68
2022-09-03T06:43:06.861Z,16.71
2022-09-03T06:45:12.252Z,16.52
2022-09-03T06:47:14.927Z,16.78
2022-09-03T06:49:17.690Z,16.73
2022-09-03T06:51:28.529Z,16.69
2022-09-03T06:53:37.709Z,16.85
2022-09-03T06:55:40.653Z,16.93
2022-09-03T06:57:43.216Z,17.02
2022-09-03T06:59:45.789Z,16.86
2022-09-03T07:01:48.412Z,17.12
2022-09-03T07:03:58.129Z,17.07
2022-09-03T07:06:06.715Z,17.28
2022-09-03T07:08:10.493Z,17.26
2022-09-03T07:10:16.244Z,17.07
2022-09-03T07:12:19.351Z,17.34
2022-09-03T07:14:22.232Z,17.59
2022-09-03T07:16:37.155Z,17.67
2022-09-03T07:18:41.386Z,17.85
2022-09-03T07:20:43.930Z,17.76
2022-09-03T07:22:46.537Z,17.90
2022-09-03T07:24:52.066Z,17.90
2022-09-03T07:26:55.075Z,18.32
2022-09-03T07:28:59.197Z,18.50
2022-09-03T07:31:12.426Z,18.47
2022-09-03T07:33:16.189Z,18.54
2022-09-03T07:35:19.852Z,18.31
2022-09-03T07:37:24.299Z,17.98
2022-09-03T07:39:26.988Z,18.32
2022-09-03T07:41:33.039Z,17.88
2022-09-03T07:43:40.164Z,18.20
2022-09-03T07:45:44.154Z,18.18
2022-09-03T07:47:49.582Z,18.08
2022-09-03T07:49:53.292Z,18.29
2022-09-03T07:51:55.851Z,18.15
2022-09-03T07:54:06.034Z,18.63
2022-09-03T07:56:10.949Z,18.73
2022-09-03T07:58:14.308Z,18.63
2022-09-03T08:00:17.852Z,18.78
2022-09-03T08:02:20.408Z,18.74
2022-09-03T08:04:23.017Z,18.79
2022-09-03T08:06:28.536Z,18.08
2022-09-03T08:08:35.695Z,19.17
2022-09-03T08:10:38.857Z,18.96
2022-09-03T08:12:41.439Z,18.66
2022-09-03T08:14:43.978Z,18.68
2022-09-03T08:16:50.672Z,19.26
2022-09-03T08:18:53.757Z,18.70
2022-09-03T08:21:00.110Z,18.80
2022-09-03T08:23:03.857Z,19.30
2022-09-03T08:25:07.110Z,19.27
2022-09-03T08:27:14.305Z,19.31
2022-09-03T08:29:16.891Z,19.31
2022-09-03T08:31:22.708Z,19.34
2022-09-03T08:33:37.283Z,18.70
2022-09-03T08:35:40.048Z,19.39
2022-09-03T08:37:42.798Z,19.59
2022-09-03T08:39:46.052Z,19.07
2022-09-03T08:41:51.579Z,19.83
2022-09-03T08:44:06.868Z,19.86
2022-09-03T08:46:10.134Z,19.70
2022-09-03T08:48:25.706Z,19.81
2022-09-03T08:50:33.120Z,19.87
2022-09-03T08:52:50.368Z,20.27
2022-09-03T08:55:02.448Z,20.22
2022-09-03T08:57:07.716Z,20.46
2022-09-03T08:59:10.541Z,20.66
2022-09-03T09:01:34.317Z,20.60
2022-09-03T09:03:56.794Z,20.77
2022-09-03T09:06:26.804Z,20.98
2022-09-03T09:09:15.176Z,20.96
2022-09-03T09:12:10.808Z,20.83
2022-09-03T09:14:47.041Z,20.95
2022-09-03T09:17:17.761Z,20.97
2022-09-03T09:19:39.188Z,21.08
2022-09-03T09:21:53.006Z,21.24
2022-09-03T09:24:03.845Z,21.16
2022-09-03T09:26:12.991Z,21.01
2022-09-03T09:28:25.883Z,21.05
2022-09-03T09:30:32.905Z,21.37
2022-09-03T09:32:38.692Z,21.28
2022-09-03T09:34:47.482Z,21.26
2022-09-03T09:36:56.871Z,21.31
2022-09-03T09:39:10.632Z,21.66
2022-09-03T09:41:17.026Z,21.71
2022-09-03T09:43:22.967Z,21.66
2022-09-03T09:45:25.578Z,21.61
2022-09-03T09:47:38.923Z,21.97
2022-09-03T09:49:57.091Z,21.98
2022-09-03T09:52:06.418Z,22.01
2022-09-03T09:54:20.064Z,22.01
2022-09-03T09:56:25.175Z,21.95
2022-09-03T09:58:30.963Z,21.93
2022-09-03T10:00:35.051Z,21.87
2022-09-03T10:02:40.653Z,22.03
2022-09-03T10:04:46.226Z,21.89
2022-09-03T10:06:57.317Z,21.35
2022-09-03T10:09:23.453Z,22.19
2022-09-03T10:11:39.845Z,22.18
2022-09-03T10:13:48.547Z,22.08
2022-09-03T10:16:28.939Z,22.65
2022-09-03T10:18:47.039Z,22.54
2022-09-03T10:21:06.807Z,22.61
2022-09-03T10:23:25.819Z,22.90
2022-09-03T10:26:07.660Z,23.18
2022-09-03T10:28:11.548Z,23.08
2022-09-03T10:30:16.191Z,23.13
2022-09-03T10:32:44.953Z,23.11
2022-09-03T10:35:35.622Z,23.49
2022-09-03T10:37:55.743Z,23.73
2022-09-03T10:40:31.638Z,23.71
2022-09-03T10:43:04.953Z,23.76
2022-09-03T10:45:33.436Z,23.72
2022-09-03T10:48:04.231Z,23.27
2022-09-03T10:50:27.190Z,23.47
2022-09-03T10:53:07.072Z,23.41
2022-09-03T10:55:48.279Z,23.22
2022-09-03T10:58:12.831Z,23.34
2022-09-03T11:00:18.614Z,23.14
2022-09-03T11:03:07.460Z,23.44
2022-09-03T11:05:35.378Z,23.36
2022-09-03T11:07:49.479Z,23.30
2022-09-03T11:10:12.756Z,23.14
2022-09-03T11:12:25.449Z,23.07
2022-09-03T11:14:49.104Z,23.19
2022-09-03T11:17:06.036Z,22.62
2022-09-03T11:19:15.776Z,22.82
2022-09-03T11:21:25.283Z,23.04
2022-09-03T11:23:32.248Z,23.03
2022-09-03T11:25:42.172Z,23.04
2022-09-03T11:28:13.130Z,22.83
2022-09-03T11:30:38.232Z,23.06
2022-09-03T11:32:44.100Z,23.21
2022-09-03T11:34:55.005Z,23.21
2022-09-03T11:37:31.094Z,23.54
2022-09-03T11:39:36.834Z,23.64
2022-09-03T11:41:40.069Z,23.67
2022-09-03T11:43:44.417Z,23.92
2022-09-03T11:45:47.161Z,23.26
2022-09-03T11:47:51.328Z,23.91
2022-09-03T11:50:20.996Z,23.32
2022-09-03T11:52:32.515Z,23.30
2022-09-03T11:54:46.117Z,23.55
2022-09-03T11:56:49.774Z,23.34
2022-09-03T11:59:03.944Z,23.55
2022-09-03T12:01:17.978Z,23.60
2022-09-03T12:03:44.147Z,23.62
2022-09-03T12:06:17.447Z,23.68
2022-09-03T12:09:07.947Z,23.70
2022-09-03T12:11:50.972Z,23.78
2022-09-03T12:14:49.203Z,23.76
2022-09-03T12:17:27.576Z,23.74
2022-09-03T12:19:53.561Z,23.85
2022-09-03T12:21:56.578Z,23.11
2022-09-03T12:24:03.313Z,23.12
2022-09-03T12:26:23.843Z,23.56
2022-09-03T12:28:29.702Z,23.52
2022-09-03T12:30:32.777Z,23.27
2022-09-03T12:32:37.358Z,23.21
2022-09-03T12:34:40.018Z,23.43
2022-09-03T12:36:49.370Z,23.12
2022-09-03T12:39:11.968Z,23.26
2022-09-03T12:41:31.254Z,23.01
2022-09-03T12:43:37.949Z,22.78
2022-09-03T12:48:17.379Z,23.27
2022-09-03T12:50:23.865Z,23.26
2022-09-03T12:52:36.125Z,23.04
2022-09-03T12:55:08.315Z,23.19
2022-09-03T12:57:11.206Z,23.02
2022-09-03T12:59:19.508Z,22.99
2022-09-03T13:01:28.273Z,23.16
2022-09-03T13:03:48.141Z,23.04
2022-09-03T13:06:06.489Z,23.24
2022-09-03T13:08:15.390Z,23.40
2022-09-03T13:10:43.681Z,23.72
2022-09-03T13:12:53.362Z,23.29
2022-09-03T13:14:56.514Z,23.68
2022-09-03T13:17:26.795Z,23.86
2022-09-03T13:20:12.916Z,24.23
2022-09-03T13:23:05.034Z,24.17
2022-09-03T13:25:30.564Z,23.93
2022-09-03T13:27:52.385Z,23.85
2022-09-03T13:30:02.199Z,23.92
2022-09-03T13:32:58.159Z,23.86
2022-09-03T13:35:14.202Z,23.18
2022-09-03T13:37:45.490Z,23.98
2022-09-03T13:39:59.328Z,24.14
2022-09-03T13:42:50.844Z,24.37
2022-09-03T13:45:26.712Z,24.93
2022-09-03T13:48:05.444Z,24.86
2022-09-03T13:50:22.410Z,24.96
2022-09-03T13:52:36.232Z,24.85
2022-09-03T13:54:49.630Z,24.44
2022-09-03T13:57:05.336Z,23.94
2022-09-03T13:59:40.563Z,24.11
2022-09-03T14:02:04.698Z,24.03
2022-09-03T14:04:20.322Z,23.84
2022-09-03T14:06:45.016Z,23.72
2022-09-03T14:09:09.525Z,23.85
2022-09-03T14:11:47.352Z,24.17
2022-09-03T14:14:20.077Z,23.96
2022-09-03T14:16:42.175Z,24.38
2022-09-03T14:19:38.347Z,24.44
2022-09-03T14:21:58.610Z,23.94
2022-09-03T14:24:44.814Z,24.17
2022-09-03T14:27:00.509Z,24.01
2022-09-03T14:29:17.026Z,23.98
2022-09-03T14:31:29.454Z,24.51
2022-09-03T14:34:04.273Z,24.44
2022-09-03T14:36:27.248Z,24.26
2022-09-03T14:38:29.697Z,24.40
2022-09-03T14:40:45.736Z,24.34
2022-09-03T14:43:09.844Z,24.30
2022-09-03T14:45:21.275Z,24.28
2022-09-03T14:48:09.519Z,24.13
2022-09-03T14:50:40.022Z,23.93
2022-09-03T14:53:38.608Z,23.64
2022-09-03T14:55:59.536Z,23.43
2022-09-03T14:58:19.968Z,23.11
2022-09-03T15:00:31.687Z,23.09
2022-09-03T15:02:34.302Z,23.11
2022-09-03T15:05:11.023Z,23.23
2022-09-03T15:07:54.016Z,23.44
2022-09-03T15:10:37.948Z,23.40
2022-09-03T15:12:46.795Z,23.44
2022-09-03T15:15:01.845Z,23.21
2022-09-03T15:17:42.556Z,23.34
2022-09-03T15:20:25.519Z,23.60
2022-09-03T15:23:06.450Z,23.14
2022-09-03T15:25:32.262Z,23.51
2022-09-03T15:28:02.660Z,23.50
2022-09-03T15:30:21.409Z,23.39
2022-09-03T15:32:55.907Z,23.61
2022-09-03T15:35:31.005Z,23.78
2022-09-03T15:37:57.900Z,23.80
2022-09-03T15:40:30.420Z,23.76
2022-09-03T15:42:36.431Z,24.07
2022-09-03T15:44:54.113Z,23.98
2022-09-03T15:47:14.708Z,23.65
2022-09-03T15:49:37.890Z,23.87
2022-09-03T15:52:06.423Z,23.82
2022-09-03T15:54:48.956Z,23.70
2022-09-03T15:57:06.503Z,23.08
2022-09-03T15:59:58.694Z,23.23
2022-09-03T16:02:12.735Z,22.73
2022-09-03T16:04:55.621Z,22.71
2022-09-03T16:07:19.013Z,22.54
2022-09-03T16:09:45.479Z,22.93
2022-09-03T16:12:08.163Z,22.87
2022-09-03T16:14:36.633Z,22.73
2022-09-03T16:16:48.071Z,22.81
2022-09-03T16:19:26.770Z,22.75
2022-09-03T16:22:06.059Z,22.81
2022-09-03T16:24:25.209Z,22.83
2022-09-03T16:26:50.533Z,22.87
2022-09-03T16:29:00.294Z,22.89
2022-09-03T16:32:18.171Z,22.92
2022-09-03T16:34:40.238Z,22.78
2022-09-03T16:37:13.457Z,22.86
2022-09-03T16:39:55.675Z,22.80
2022-09-03T16:42:09.881Z,22.77
2022-09-03T16:44:52.975Z,22.80
2022-09-03T16:47:31.353Z,22.63
2022-09-03T16:50:08.094Z,22.78
2022-09-03T16:52:19.941Z,22.64
2022-09-03T16:54:38.177Z,21.90
2022-09-03T16:57:34.228Z,22.65
2022-09-03T17:00:00.956Z,22.58
2022-09-03T17:02:41.691Z,22.56
2022-09-03T17:05:29.625Z,22.17
2022-09-03T17:07:57.015Z,22.50
2022-09-03T17:10:27.050Z,22.27
2022-09-03T17:12:49.296Z,22.04
2022-09-03T17:15:45.823Z,22.35
2022-09-03T17:18:07.028Z,21.56
2022-09-03T17:20:17.495Z,21.71
2022-09-03T17:22:28.530Z,22.08
2022-09-03T17:25:06.695Z,21.96
2022-09-03T17:27:42.716Z,21.97
2022-09-03T17:30:08.819Z,21.69
2022-09-03T17:32:23.510Z,21.84
2022-09-03T17:34:46.181Z,21.83
2022-09-03T17:37:47.523Z,21.81
2022-09-03T17:40:20.996Z,21.73
2022-09-03T17:43:17.240Z,21.69
2022-09-03T17:45:57.294Z,21.68
2022-09-03T17:48:53.841Z,21.59
2022-09-03T17:51:36.072Z,21.59
2022-09-03T17:53:39.633Z,21.60
2022-09-03T17:55:56.641Z,21.59
2022-09-03T17:58:19.229Z,21.58
2022-09-03T18:00:35.113Z,21.15
2022-09-03T18:03:06.558Z,21.06
2022-09-03T18:05:47.173Z,21.36
2022-09-03T18:08:20.711Z,21.45
2022-09-03T18:11:02.632Z,21.36
2022-09-03T18:13:31.867Z,21.03
2022-09-03T18:16:27.424Z,21.35
2022-09-03T18:18:37.093Z,21.05
2022-09-03T18:21:30.835Z,21.29
2022-09-03T18:24:24.708Z,21.24
2022-09-03T18:26:52.357Z,21.16
2022-09-03T18:29:32.041Z,21.14
2022-09-03T18:31:53.345Z,21.08
2022-09-03T18:34:14.672Z,20.64
2022-09-03T18:36:35.857Z,20.66
2022-09-03T18:38:58.319Z,21.14
2022-09-03T18:41:54.764Z,21.05
2022-09-03T18:44:36.934Z,20.58
2022-09-03T18:48:09.042Z,21.00
2022-09-03T18:50:57.706Z,20.88
2022-09-03T18:53:30.012Z,20.67
2022-09-03T18:56:33.048Z,20.81
2022-09-03T18:59:10.572Z,20.77
2022-09-03T19:01:51.618Z,20.70
2022-09-03T19:04:38.426Z,20.66
2022-09-03T19:07:23.030Z,20.60
2022-09-03T19:10:14.807Z,20.52
2022-09-03T19:12:59.400Z,20.43
2022-09-03T19:15:37.248Z,20.24
2022-09-03T19:18:17.105Z,20.28
2022-09-03T19:20:54.492Z,20.40
2022-09-03T19:23:15.389Z,20.44
2022-09-03T19:25:36.872Z,20.18
2022-09-03T19:28:10.184Z,20.42
2022-09-03T19:30:50.346Z,20.37
2022-09-03T19:33:26.426Z,20.28
2022-09-03T19:36:03.976Z,20.29
2022-09-03T19:38:34.834Z,20.26
2022-09-03T19:41:22.454Z,20.22
2022-09-03T19:43:55.810Z,20.29
2022-09-03T19:46:54.490Z,20.08
2022-09-03T19:50:01.379Z,19.97
2022-09-03T19:53:02.360Z,19.93
2022-09-03T19:55:23.998Z,19.39
2022-09-03T19:57:48.641Z,20.01
2022-09-03T20:00:11.455Z,19.91
2022-09-03T20:02:35.598Z,19.73
2022-09-03T20:05:06.972Z,19.89
2022-09-03T20:07:29.395Z,18.88
2022-09-03T20:09:59.038Z,19.43
2022-09-03T20:12:09.219Z,19.74
2022-09-03T20:14:16.377Z,19.50
2022-09-03T20:17:09.626Z,19.79
2022-09-03T20:19:27.862Z,19.73
2022-09-03T20:21:39.467Z,19.69
2022-09-03T20:23:59.419Z,19.42
2022-09-03T20:26:24.838Z,19.65
2022-09-03T20:28:58.726Z,19.60
2022-09-03T20:31:22.255Z,19.30
2022-09-03T20:33:45.156Z,19.14
2022-09-03T20:35:56.613Z,19.60
2022-09-03T20:38:19.976Z,19.58
2022-09-03T20:40:52.852Z,19.39
2022-09-03T20:43:20.381Z,19.54
2022-09-03T20:45:57.514Z,19.12
2022-09-03T20:48:10.937Z,19.19
2022-09-03T20:50:43.672Z,19.44
2022-09-03T20:53:07.685Z,19.40
2022-09-03T20:55:21.538Z,19.30
2022-09-03T20:57:47.228Z,19.40
2022-09-03T21:00:15.102Z,19.41
2022-09-03T21:02:37.920Z,19.40
2022-09-03T21:05:22.956Z,19.38
2022-09-03T21:08:20.554Z,19.32
2022-09-03T21:10:57.780Z,19.25
2022-09-03T21:13:14.060Z,19.18
2022-09-03T21:16:09.779Z,18.81
2022-09-03T21:18:39.492Z,19.25
2022-09-03T21:21:36.396Z,19.18
2022-09-03T21:23:46.472Z,19.17
2022-09-03T21:26:16.120Z,19.14
2022-09-03T21:28:38.504Z,19.01
2022-09-03T21:30:46.498Z,18.61
2022-09-03T21:33:01.392Z,18.87
2022-09-03T21:35:25.016Z,18.98
2022-09-03T21:37:28.245Z,18.30
2022-09-03T21:39:48.629Z,18.97
2022-09-03T21:42:24.644Z,18.80
2022-09-03T21:44:54.619Z,18.91
2022-09-03T21:47:03.051Z,18.81
2022-09-03T21:49:12.560Z,18.20
2022-09-03T21:51:46.865Z,18.81
2022-09-03T21:54:13.101Z,18.80
2022-09-03T21:56:58.682Z,18.82
2022-09-03T21:59:31.321Z,18.47
2022-09-03T22:01:54.304Z,18.73
2022-09-03T22:03:57.098Z,18.69
2022-09-03T22:06:28.800Z,17.96
2022-09-03T22:08:49.238Z,18.60
2022-09-03T22:10:51.742Z,18.69
2022-09-03T22:13:14.792Z,18.66
2022-09-03T22:15:21.198Z,18.50
2022-09-03T22:17:55.973Z,18.46
2022-09-03T22:19:58.607Z,18.58
2022-09-03T22:22:03.066Z,18.49
2022-09-03T22:24:23.020Z,18.54
2022-09-03T22:26:49.207Z,18.45
2022-09-03T22:29:15.364Z,18.45
2022-09-03T22:31:42.393Z,18.46
2022-09-03T22:34:20.779Z,18.35
2022-09-03T22:36:35.175Z,18.44
2022-09-03T22:39:07.129Z,18.41
2022-09-03T22:41:36.990Z,18.44
2022-09-03T22:43:53.645Z,18.27
2022-09-03T22:46:04.836Z,18.05
2022-09-03T22:48:48.562Z,18.32
2022-09-03T22:50:59.243Z,18.30
2022-09-03T22:53:33.917Z,18.26
2022-09-03T22:55:41.536Z,17.73
2022-09-03T22:58:07.209Z,18.20
2022-09-03T23:00:12.218Z,18.16
2022-09-03T23:02:28.588Z,18.12
2022-09-03T23:05:06.361Z,18.02
2022-09-03T23:07:27.410Z,17.72
2022-09-03T23:09:36.559Z,18.00
2022-09-03T23:11:50.323Z,17.92
2022-09-03T23:14:09.839Z,17.78
2022-09-03T23:16:52.862Z,17.22
2022-09-03T23:18:57.440Z,17.80
2022-09-03T23:21:22.175Z,17.82
2022-09-03T23:23:39.235Z,17.72
2022-09-03T23:26:23.560Z,16.94
2022-09-03T23:28:38.257Z,17.55
2022-09-03T23:30:41.340Z,16.96
2022-09-03T23:32:44.046Z,17.52
2022-09-03T23:34:46.573Z,17.53
2022-09-03T23:37:32.339Z,17.48
2022-09-03T23:40:11.868Z,17.42
2022-09-03T23:42:42.703Z,17.21
2022-09-03T23:45:18.814Z,17.35
2022-09-03T23:47:53.679Z,17.30
2022-09-03T23:50:16.871Z,17.27
2022-09-03T23:52:35.354Z,17.23
2022-09-03T23:54:49.849Z,17.01
2022-09-03T23:57:29.996Z,17.25
2022-09-03T23:59:53.865Z,17.19
